Airfield :
LOGIN :

Register | Disclaimer

   EN    FR    IT 

 










Legend :    VFR   Marginal VFR   IFR   Intensive IFR   Very Intensive IFR
Visi :
Ceiling :
>= 8 km
>= 3000ft
5 to 8 km
1000 to 3000 ft
1500m to 5 km
500 to 1000 ft
800 to 1500m
200 to 500 ft
< 800m
< 200 ft
Symbols :   Thunderstorms  Fog  Heavy snow  Heavy precipitations  Wind > 20 kt
SIGMETs :     Misc.  Thunderstorms  Icing  Turbulence  Mountain Waves  Volcanic Ashes







- Airport Elevation : 407 ft


EGDM - MoD Boscombe Down Amesbury

CURRENT METAR :
  • 161150Z 22011KT 9999 SCT011 BKN035 BKN060 09/08 Q1003 GRN BECMG FEW011 BKN035 BLU

EXPIRED METARs :
  • 161113Z 23010KT 9999 SCT005 BKN030 09/08 Q1004 YLO1 BECMG BKN030 BLU
  • 161050Z 20013KT 8000 4000W -DZ BKN004 BKN011 09/08 Q1004 YLO2 BECMG 9999 NSW FEW010 BKN025 BLU
  • 161030Z 21015KT 4000 -DZ BKN005 OVC013 09/08 Q1005 YLO1 BECMG 9999 NSW FEW010 BKN025 BLU
  • 161014Z 21015KT 5000 -DZ BKN006 OVC013 09/08 Q1005 YLO1 BECMG 9999 NSW FEW010 BKN025 BLU
  • 160950Z 21013KT 9999 -DZ BKN007 OVC013 09/08 Q1005 GRN TEMPO 7000 SCT006 YLO1
  • 160850Z 21012KT 9999 BKN007 BKN012 08/08 Q1006 GRN TEMPO 7000 -DZ BKN006 YLO1

TAF AMD TAF EGDM
Valid from the 16 at 11:00 until the 16 at 18:00 UTC


161103Z 1611/1618 22014KT 4000 -DZ BKN004
BECMG 1611/1612 9999 NSW BKN025
TEMPO 1612/1615 -RA BKN012
PROB40
TEMPO 1612/1615 5000 RA
No reported NOTAMs for that airfield.



MET'MAP, your aeronautical weather chart ! - Copyright ORBIFLY December 2007 - Disclaimer

ORBIFLY MET'MAP TEAM :

Programming & Development : Alexandra Zaïnal
Concept & Development : Baudouin d'Aumeries
Co-Development & Prog : Marc-Olivier Méhu
Technical & hardware support : Manuel Goepfert

Contact : metmap@orbifly.com




SOURCES & CREDITS :

   NOAA